Time;durP1;ratioP1;P1;durP2;ratioP2;P2;SDS_P1;SDS_P2;PMS_P1;PMS_P2;Temp;Humidity;BMP_temperature;BMP_pressure;BME280_temperature;BME280_humidity;BME280_pressure;Samples;Min_cycle;Max_cycle;Signal;HPM_P1;HPM_P2
2021/08/18 00:00:20;;;;;;;18.57;10.80;;;;;;;14.18;62.89;100238.69;1824971;78;21070;-77
2021/08/18 00:02:48;;;;;;;18.27;10.98;;;;;;;14.19;62.99;100243.03;1792303;79;20998;-77
2021/08/18 00:05:15;;;;;;;16.05;10.15;;;;;;;14.20;63.20;100239.33;1825290;78;20963;-77
2021/08/18 00:07:41;;;;;;;15.35;10.35;;;;;;;14.20;63.20;100239.33;1792838;80;20951;-77
2021/08/18 00:10:10;;;;;;;18.07;10.08;;;;;;;14.21;63.28;100238.31;1825385;78;21546;-77
2021/08/18 00:12:37;;;;;;;22.75;11.45;;;;;;;14.20;63.37;100240.67;1792889;80;21131;-77
2021/08/18 00:15:05;;;;;;;19.37;10.30;;;;;;;14.20;63.52;100237.98;1825675;78;21066;-77
2021/08/18 00:17:32;;;;;;;17.07;10.95;;;;;;;14.22;63.61;100240.45;1793064;80;21561;-77
2021/08/18 00:19:58;;;;;;;16.60;10.45;;;;;;;14.23;63.70;100234.08;1825400;78;21602;-77
2021/08/18 00:22:24;;;;;;;20.62;10.78;;;;;;;14.20;63.78;100232.63;1792866;80;21013;-77
2021/08/18 00:24:50;;;;;;;19.23;11.28;;;;;;;14.18;63.86;100223.93;1825211;78;21083;-77
2021/08/18 00:27:16;;;;;;;21.27;10.78;;;;;;;14.17;63.97;100229.00;1792874;80;20958;-77
2021/08/18 00:29:42;;;;;;;18.87;12.15;;;;;;;14.17;64.06;100226.83;1825189;78;20970;-77
2021/08/18 00:32:08;;;;;;;18.92;10.88;;;;;;;14.15;64.15;100227.02;1792961;80;20947;-77
2021/08/18 00:34:35;;;;;;;20.95;10.48;;;;;;;14.12;64.18;100227.41;1825038;78;21551;-77
2021/08/18 00:37:01;;;;;;;17.15;10.32;;;;;;;14.05;64.27;100225.20;1793028;80;21257;-77
2021/08/18 00:39:27;;;;;;;19.67;10.32;;;;;;;14.00;64.33;100229.00;1825134;78;20991;-77
2021/08/18 00:41:54;;;;;;;18.07;10.90;;;;;;;13.94;64.42;100219.87;1792694;80;21013;-77
2021/08/18 00:44:20;;;;;;;15.48;10.40;;;;;;;13.89;64.50;100217.47;1825169;78;21464;-77
2021/08/18 00:46:53;;;;;;;16.90;10.20;;;;;;;13.84;64.62;100226.59;1792775;80;20859;-77
2021/08/18 00:49:21;;;;;;;19.75;11.15;;;;;;;13.77;64.72;100225.72;1825460;78;21697;-77
2021/08/18 00:51:51;;;;;;;16.32;10.30;;;;;;;13.71;64.84;100217.13;1792688;80;20955;-77
2021/08/18 00:54:17;;;;;;;15.43;10.72;;;;;;;13.66;64.97;100224.40;1825241;78;20995;-77
2021/08/18 00:56:44;;;;;;;20.30;11.00;;;;;;;13.63;65.11;100221.28;1792792;80;20970;-77
2021/08/18 00:59:10;;;;;;;18.10;11.12;;;;;;;13.63;65.23;100217.26;1825415;78;21499;-77
2021/08/18 01:01:37;;;;;;;15.23;10.98;;;;;;;13.61;65.33;100220.66;1793446;79;21118;-77
2021/08/18 01:04:06;;;;;;;26.90;11.85;;;;;;;13.61;65.45;100222.00;1828991;78;21017;-77
2021/08/18 01:06:40;;;;;;;17.48;12.03;;;;;;;13.59;65.58;100224.86;1796736;79;21022;-77
2021/08/18 01:09:08;;;;;;;17.17;11.33;;;;;;;13.57;65.69;100220.72;1828809;78;21022;-77
2021/08/18 01:11:39;;;;;;;17.70;11.12;;;;;;;13.55;65.80;100224.09;1796511;79;21021;-77
2021/08/18 01:14:05;;;;;;;18.42;11.18;;;;;;;13.54;65.90;100219.77;1828949;78;21120;-77
2021/08/18 01:16:35;;;;;;;18.67;11.25;;;;;;;13.52;66.01;100221.29;1796555;79;21426;-77
2021/08/18 01:19:02;;;;;;;20.10;12.05;;;;;;;13.49;66.12;100218.50;1829141;78;21010;-77
2021/08/18 01:21:29;;;;;;;17.32;10.82;;;;;;;13.48;66.23;100220.84;1796173;79;21042;-77
2021/08/18 01:23:55;;;;;;;20.50;12.13;;;;;;;13.44;66.33;100212.88;1829210;78;21034;-77
2021/08/18 01:26:21;;;;;;;18.60;11.63;;;;;;;13.44;66.41;100219.57;1796335;79;21123;-77
2021/08/18 01:28:47;;;;;;;21.42;12.73;;;;;;;13.42;66.51;100220.28;1828890;78;20975;-77
2021/08/18 01:31:13;;;;;;;19.30;11.40;;;;;;;13.42;66.59;100218.95;1796483;79;21041;-77
2021/08/18 01:33:39;;;;;;;17.90;11.73;;;;;;;13.44;66.66;100211.53;1829276;78;20959;-77
2021/08/18 01:36:05;;;;;;;17.55;11.05;;;;;;;13.46;66.74;100214.87;1796275;79;20963;-77
2021/08/18 01:38:31;;;;;;;19.65;11.83;;;;;;;13.48;66.84;100216.83;1828864;78;21677;-77
2021/08/18 01:40:57;;;;;;;17.37;11.40;;;;;;;13.50;66.92;100214.80;1796496;79;20907;-77
2021/08/18 01:43:23;;;;;;;19.25;11.57;;;;;;;13.53;66.99;100223.47;1828984;78;21003;-77
2021/08/18 01:45:50;;;;;;;21.87;12.07;;;;;;;13.53;67.05;100220.78;1796468;79;20971;-77
2021/08/18 01:48:20;;;;;;;19.92;11.15;;;;;;;13.53;67.10;100218.94;1829017;78;21435;-77
2021/08/18 01:50:48;;;;;;;19.07;11.45;;;;;;;13.53;67.17;100216.77;1795877;79;26309;-77
2021/08/18 01:53:20;;;;;;;18.23;10.50;;;;;;;13.49;67.24;100215.81;1828938;78;20943;-77
2021/08/18 01:55:46;;;;;;;20.12;11.10;;;;;;;13.46;67.29;100216.20;1796413;79;20987;-77
2021/08/18 01:58:12;;;;;;;18.62;11.18;;;;;;;13.47;67.35;100219.19;1829111;78;21003;-77
2021/08/18 02:00:39;;;;;;;20.57;11.55;;;;;;;13.44;67.42;100218.23;1796280;79;20977;-77
2021/08/18 02:03:05;;;;;;;16.42;10.68;;;;;;;13.43;67.50;100216.59;1828907;78;21483;-77
2021/08/18 02:05:31;;;;;;;17.67;9.68;;;;;;;13.46;67.61;100212.70;1796306;79;21490;-77
2021/08/18 02:07:57;;;;;;;19.02;11.12;;;;;;;13.47;67.65;100213.83;1828772;78;21042;-77
2021/08/18 02:10:23;;;;;;;18.10;11.38;;;;;;;13.45;67.70;100217.22;1796378;79;20954;-77
2021/08/18 02:12:50;;;;;;;17.95;10.63;;;;;;;13.43;67.72;100219.78;1828953;78;21046;-77
2021/08/18 02:15:20;;;;;;;19.82;11.78;;;;;;;13.39;67.75;100213.98;1796511;79;21104;-77
2021/08/18 02:17:46;;;;;;;22.95;12.15;;;;;;;13.34;67.79;100204.34;1828786;78;20967;-77
2021/08/18 02:20:19;;;;;;;15.60;10.25;;;;;;;13.33;67.89;100212.08;1796653;79;21030;-77
2021/08/18 02:22:45;;;;;;;16.25;10.82;;;;;;;13.32;67.93;100215.77;1829045;78;21877;-77
2021/08/18 02:25:11;;;;;;;18.98;10.30;;;;;;;13.28;67.95;100219.84;1796543;79;20982;-77
2021/08/18 02:27:38;;;;;;;16.95;10.85;;;;;;;13.27;67.99;100217.34;1829152;78;21010;-77
2021/08/18 02:30:05;;;;;;;16.37;9.73;;;;;;;13.24;68.05;100214.55;1796242;79;20972;-77
2021/08/18 02:32:31;;;;;;;20.20;11.03;;;;;;;13.23;68.11;100223.59;1829367;78;20935;-77
2021/08/18 02:34:58;;;;;;;17.32;10.18;;;;;;;13.21;68.12;100210.92;1796182;79;20970;-77
2021/08/18 02:37:24;;;;;;;20.72;10.75;;;;;;;13.20;68.16;100213.27;1803807;78;21099;-77
2021/08/18 02:39:50;;;;;;;16.25;10.30;;;;;;;13.18;68.20;100216.66;1796990;78;21086;-77
2021/08/18 02:42:16;;;;;;;20.70;10.40;;;;;;;13.17;68.22;100217.67;1796296;79;21010;-77
2021/08/18 02:44:42;;;;;;;18.23;9.10;;;;;;;13.17;68.23;100219.02;1829155;78;21452;-77
2021/08/18 02:47:08;;;;;;;13.38;8.80;;;;;;;13.20;68.26;100223.98;1769720;79;21017;-77
2021/08/18 02:49:34;;;;;;;20.92;9.05;;;;;;;13.22;68.28;100223.30;1796839;78;20998;-77
2021/08/18 02:52:00;;;;;;;18.00;9.98;;;;;;;13.24;68.29;100221.25;1796486;79;21165;-77
2021/08/18 02:54:26;;;;;;;17.30;9.08;;;;;;;13.28;68.27;100223.87;1796552;79;20963;-77
2021/08/18 02:56:53;;;;;;;13.95;8.63;;;;;;;13.32;68.28;100225.65;1796033;79;20982;-77
2021/08/18 02:59:20;;;;;;;16.20;8.70;;;;;;;13.33;68.26;100217.44;1828636;78;20991;-77
2021/08/18 03:01:46;;;;;;;15.13;8.83;;;;;;;13.36;68.26;100227.77;1769632;79;21590;-77
2021/08/18 03:04:12;;;;;;;14.68;9.48;;;;;;;13.37;68.22;100225.38;1827311;78;21857;-77
2021/08/18 03:06:38;;;;;;;13.22;8.30;;;;;;;13.38;68.21;100217.67;1802981;78;20963;-77
2021/08/18 03:09:04;;;;;;;15.95;9.05;;;;;;;13.37;68.19;100222.70;1796493;79;21005;-77
2021/08/18 03:11:30;;;;;;;15.83;8.23;;;;;;;13.39;68.15;100220.68;1828928;78;20976;-77
2021/08/18 03:13:56;;;;;;;12.40;8.20;;;;;;;13.40;68.12;100225.02;1785479;79;20969;-77
2021/08/18 03:16:22;;;;;;;14.10;8.25;;;;;;;13.40;68.09;100218.83;1829193;78;21140;-77
2021/08/18 03:18:48;;;;;;;14.30;8.70;;;;;;;13.42;68.06;100224.30;1796227;79;21451;-77
2021/08/18 03:21:14;;;;;;;15.55;8.13;;;;;;;13.44;68.03;100218.23;1829141;78;20963;-77
2021/08/18 03:23:40;;;;;;;11.57;7.72;;;;;;;13.47;67.99;100215.16;1796357;79;21021;-77
2021/08/18 03:26:06;;;;;;;13.18;7.65;;;;;;;13.47;67.92;100220.52;1803570;78;21048;-77
2021/08/18 03:28:32;;;;;;;13.62;7.78;;;;;;;13.49;67.89;100226.53;1797038;78;21168;-77
2021/08/18 03:30:58;;;;;;;14.47;8.03;;;;;;;13.50;67.83;100226.86;1761814;81;21038;-77
2021/08/18 03:33:24;;;;;;;12.33;7.45;;;;;;;13.50;67.77;100224.18;1762032;81;21499;-77
2021/08/18 03:35:50;;;;;;;14.20;7.90;;;;;;;13.51;67.73;100228.50;1763190;79;20985;-77
2021/08/18 03:38:16;;;;;;;17.15;7.60;;;;;;;13.53;67.63;100231.50;1793470;79;21022;-77
2021/08/18 03:40:44;;;;;;;11.28;7.30;;;;;;;13.51;67.57;100220.45;1796731;78;21153;-77
2021/08/18 03:43:10;;;;;;;10.10;6.72;;;;;;;13.53;67.51;100227.48;1787508;79;21416;-77
2021/08/18 03:45:36;;;;;;;13.35;7.47;;;;;;;13.53;67.44;100228.82;1796505;79;21474;-77
2021/08/18 03:48:02;;;;;;;12.63;7.05;;;;;;;13.53;67.36;100228.31;1820077;78;20979;-77
2021/08/18 03:50:28;;;;;;;11.50;6.72;;;;;;;13.53;67.30;100223.47;1828470;78;20904;-77
2021/08/18 03:52:54;;;;;;;11.63;6.35;;;;;;;13.52;67.23;100229.33;1819698;78;21126;-77
2021/08/18 03:55:20;;;;;;;12.23;7.12;;;;;;;13.53;67.17;100236.86;1761963;81;20970;-77
2021/08/18 03:57:46;;;;;;;10.55;6.62;;;;;;;13.54;67.11;100235.84;1786195;79;20990;-77
2021/08/18 04:00:13;;;;;;;9.85;6.20;;;;;;;13.55;67.05;100240.16;1796629;79;20966;-77
2021/08/18 04:02:40;;;;;;;11.15;6.37;;;;;;;13.55;67.00;100245.52;1791075;79;21004;-77
2021/08/18 04:05:08;;;;;;;10.40;6.12;;;;;;;13.55;66.94;100249.03;1774233;80;21810;-77
2021/08/18 04:07:34;;;;;;;9.70;5.47;;;;;;;13.55;66.88;100254.39;1806489;79;21057;-77
2021/08/18 04:10:00;;;;;;;9.20;6.25;;;;;;;13.56;66.83;100255.22;1794697;79;21006;-77
2021/08/18 04:12:26;;;;;;;9.45;6.53;;;;;;;13.56;66.78;100255.22;1829009;77;21474;-77
2021/08/18 04:14:52;;;;;;;12.90;5.10;;;;;;;13.56;66.71;100260.59;1794957;79;21002;-77
2021/08/18 04:17:18;;;;;;;12.63;5.75;;;;;;;13.57;66.66;100258.23;1812881;78;21134;-77
2021/08/18 04:19:44;;;;;;;7.87;5.60;;;;;;;13.58;66.61;100259.91;1791775;80;20987;-77
2021/08/18 04:22:10;;;;;;;10.63;5.55;;;;;;;13.58;66.57;100270.62;1797216;78;21045;-77
2021/08/18 04:24:36;;;;;;;10.40;6.12;;;;;;;13.60;66.48;100272.58;1763308;81;21049;-77
2021/08/18 04:27:02;;;;;;;17.25;8.93;;;;;;;13.60;66.42;100283.30;1796846;78;21632;-77
2021/08/18 04:29:28;;;;;;;12.68;6.90;;;;;;;13.61;66.40;100280.44;1763687;80;21861;-77
2021/08/18 04:31:54;;;;;;;9.88;5.42;;;;;;;13.65;66.35;100272.84;1796387;79;20950;-77
2021/08/18 04:34:20;;;;;;;10.08;5.62;;;;;;;13.71;66.31;100262.69;1763757;80;20927;-77
2021/08/18 04:36:46;;;;;;;10.68;5.60;;;;;;;13.72;66.22;100261.13;1805275;78;20978;-77
2021/08/18 04:39:12;;;;;;;12.43;5.70;;;;;;;13.79;66.15;100273.28;1773298;79;20999;-77
2021/08/18 04:41:38;;;;;;;9.18;5.08;;;;;;;13.80;66.08;100273.57;1801684;78;21138;-77
2021/08/18 04:44:05;;;;;;;9.65;4.90;;;;;;;13.79;66.02;100278.64;1766574;79;21058;-77
2021/08/18 04:46:31;;;;;;;12.15;5.42;;;;;;;13.79;65.97;100278.09;1796898;78;20946;-77
2021/08/18 04:48:56;;;;;;;9.65;5.22;;;;;;;13.76;65.92;100274.98;1765248;80;20947;-77
2021/08/18 04:51:22;;;;;;;9.65;5.55;;;;;;;13.78;65.92;100278.31;1796734;78;21044;-77
2021/08/18 04:53:49;;;;;;;9.18;5.42;;;;;;;13.78;65.87;100282.33;1821187;78;21128;-77
2021/08/18 04:56:15;;;;;;;8.90;5.17;;;;;;;13.77;65.83;100279.33;1794527;80;20987;-77
2021/08/18 04:58:42;;;;;;;9.95;5.47;;;;;;;13.77;65.80;100281.50;1829174;78;20993;-77
2021/08/18 05:01:08;;;;;;;10.08;5.00;;;;;;;13.83;65.80;100278.55;1778772;80;21003;-77
2021/08/18 05:03:34;;;;;;;11.60;5.33;;;;;;;13.99;65.80;100279.62;1796217;78;21045;-77
2021/08/18 05:06:00;;;;;;;8.90;5.05;;;;;;;14.10;65.68;100281.77;1796156;78;21455;-77
2021/08/18 05:08:26;;;;;;;11.03;5.17;;;;;;;14.23;65.60;100281.84;1795873;79;21473;-77
2021/08/18 05:10:52;;;;;;;8.50;4.55;;;;;;;14.77;65.33;100291.89;1816827;78;20954;-77
2021/08/18 05:13:18;;;;;;;7.97;5.10;;;;;;;14.79;65.13;100289.31;1796000;79;20986;-77
2021/08/18 05:15:44;;;;;;;8.53;5.12;;;;;;;14.50;65.01;100292.25;1796191;78;21044;-77
2021/08/18 05:18:10;;;;;;;9.20;5.83;;;;;;;14.50;65.01;100292.25;1823388;78;21768;-77
2021/08/18 05:20:36;;;;;;;10.58;5.03;;;;;;;14.37;65.02;100290.33;1827666;78;20955;-78
2021/08/18 05:23:02;;;;;;;10.40;5.05;;;;;;;14.19;64.95;100268.51;1817853;78;21004;-77
2021/08/18 05:25:28;;;;;;;7.80;4.62;;;;;;;14.54;64.91;100288.66;1814585;78;20974;-77
2021/08/18 05:27:54;;;;;;;8.58;4.80;;;;;;;14.90;64.79;100290.60;1814407;78;20986;-78
2021/08/18 05:30:20;;;;;;;7.55;4.08;;;;;;;15.11;64.67;100288.30;1798337;78;21117;-78
2021/08/18 05:32:46;;;;;;;7.97;4.72;;;;;;;15.38;64.53;100284.64;1796187;78;21451;-78
2021/08/18 05:35:14;;;;;;;9.05;4.97;;;;;;;15.53;64.29;100284.49;1795723;79;21490;-78
2021/08/18 05:37:41;;;;;;;8.60;4.83;;;;;;;15.79;63.96;100289.40;1819247;78;20970;-78
2021/08/18 05:40:08;;;;;;;7.42;4.40;;;;;;;16.03;63.74;100282.56;1828074;78;21013;-78
2021/08/18 05:42:35;;;;;;;9.80;4.87;;;;;;;16.25;63.48;100285.85;1813822;78;21234;-77
2021/08/18 05:45:01;;;;;;;9.33;4.87;;;;;;;16.38;63.17;100293.38;1816045;78;21045;-78
2021/08/18 05:47:27;;;;;;;8.05;3.98;;;;;;;16.48;62.77;100291.08;1814702;78;21021;-78
2021/08/18 05:49:53;;;;;;;6.80;4.37;;;;;;;16.57;62.39;100292.23;1828090;78;21036;-78
2021/08/18 05:52:19;;;;;;;11.12;4.15;;;;;;;16.64;62.18;100293.05;1807882;78;21510;-78
2021/08/18 05:54:45;;;;;;;9.23;4.70;;;;;;;16.79;61.98;100278.78;1822511;78;21748;-78
2021/08/18 05:57:12;;;;;;;8.58;4.42;;;;;;;16.89;61.70;100289.41;1808148;78;21521;-78
2021/08/18 05:59:37;;;;;;;12.07;5.55;;;;;;;16.88;61.21;100289.64;1799882;78;20854;-78
2021/08/18 06:02:04;;;;;;;8.88;4.42;;;;;;;16.77;60.79;100291.65;1812581;78;20994;-78
2021/08/18 06:04:30;;;;;;;5.87;4.03;;;;;;;16.92;60.70;100290.88;1822816;78;20958;-78
2021/08/18 06:06:56;;;;;;;7.17;4.40;;;;;;;16.98;60.35;100285.45;1828300;78;21170;-79
2021/08/18 06:09:22;;;;;;;5.53;4.22;;;;;;;16.86;60.03;100303.83;1828408;78;21534;-79
2021/08/18 06:11:48;;;;;;;7.42;4.75;;;;;;;16.94;59.97;100300.91;1823753;78;20950;-79
2021/08/18 06:14:14;;;;;;;7.17;4.22;;;;;;;17.08;59.75;100294.42;1805310;78;21066;-78
2021/08/18 06:16:40;;;;;;;8.73;4.85;;;;;;;17.06;59.55;100303.25;1811664;78;21029;-78
2021/08/18 06:19:06;;;;;;;8.13;4.62;;;;;;;17.19;59.44;100309.92;1807147;78;21104;-77
2021/08/18 06:21:32;;;;;;;9.70;5.87;;;;;;;17.31;59.33;100308.17;1796738;78;21085;-78
2021/08/18 06:24:07;;;;;;;6.83;4.37;;;;;;;17.32;59.07;100305.80;1808593;78;21545;-77
2021/08/18 06:26:26;;;;;;;7.95;4.53;;;;;;;17.37;58.98;100299.25;1810729;78;20990;-77
2021/08/18 06:28:52;;;;;;;9.18;4.67;;;;;;;17.46;58.74;100307.38;1819067;78;21483;-77
2021/08/18 06:31:18;;;;;;;7.22;4.00;;;;;;;17.47;58.53;100305.50;1812949;78;21669;-78
2021/08/18 06:33:44;;;;;;;7.58;4.97;;;;;;;17.48;58.45;100302.61;1813672;78;20996;-77
2021/08/18 06:36:10;;;;;;;12.18;4.75;;;;;;;17.63;58.34;100305.00;1796726;78;20982;-77
2021/08/18 06:38:36;;;;;;;8.18;5.25;;;;;;;17.61;58.26;100310.32;1796020;79;20989;-78
2021/08/18 06:41:02;;;;;;;7.80;4.55;;;;;;;17.61;58.08;100300.88;1807890;77;20977;-78
2021/08/18 06:43:28;;;;;;;6.58;4.58;;;;;;;17.62;57.93;100303.38;1797114;78;21106;-78
2021/08/18 06:45:54;;;;;;;6.75;4.12;;;;;;;17.74;57.86;100301.61;1810057;78;21049;-78
2021/08/18 06:48:20;;;;;;;8.50;4.05;;;;;;;17.83;57.78;100307.58;1803745;78;20997;-78
2021/08/18 06:50:46;;;;;;;8.83;4.85;;;;;;;17.99;57.83;100309.72;1825071;78;21068;-78
2021/08/18 06:53:12;;;;;;;11.57;4.67;;;;;;;18.17;57.62;100315.70;1787791;78;21018;-77
2021/08/18 06:55:38;;;;;;;13.65;4.95;;;;;;;18.14;57.38;100315.63;1816436;78;21791;-77
2021/08/18 06:58:04;;;;;;;5.67;3.92;;;;;;;18.12;57.34;100320.39;1809030;77;20859;-78
2021/08/18 07:00:30;;;;;;;6.72;5.00;;;;;;;18.32;57.23;100319.72;1815963;78;21058;-78
2021/08/18 07:02:56;;;;;;;6.20;4.00;;;;;;;18.27;56.98;100312.80;1798677;78;21055;-78
2021/08/18 07:05:23;;;;;;;8.80;4.58;;;;;;;18.27;56.89;100316.84;1803782;78;21520;-78
2021/08/18 07:07:49;;;;;;;8.83;4.40;;;;;;;18.28;56.79;100314.45;1808867;78;22006;-79
2021/08/18 07:10:15;;;;;;;6.12;4.30;;;;;;;18.34;56.65;100310.02;1780615;80;21058;-78
2021/08/18 07:12:44;;;;;;;7.20;3.83;;;;;;;18.30;56.59;100316.91;1781732;80;21016;-79
2021/08/18 07:15:10;;;;;;;6.75;4.12;;;;;;;18.35;56.54;100321.97;1781982;79;21466;-78
2021/08/18 07:17:36;;;;;;;8.20;4.28;;;;;;;18.35;56.52;100326.02;1777119;79;21030;-78
2021/08/18 07:20:03;;;;;;;8.70;4.55;;;;;;;18.29;56.35;100329.61;1786777;79;21121;-78
2021/08/18 07:22:29;;;;;;;5.72;3.95;;;;;;;18.05;56.33;100330.42;1787191;79;21403;-78
2021/08/18 07:24:55;;;;;;;5.42;3.92;;;;;;;17.70;56.39;100331.93;1785784;79;21007;-78
2021/08/18 07:27:21;;;;;;;6.87;3.62;;;;;;;17.73;56.74;100329.63;1785960;79;21082;-77
2021/08/18 07:29:47;;;;;;;8.58;3.60;;;;;;;17.47;56.82;100329.25;1783507;79;21093;-77
2021/08/18 07:32:13;;;;;;;7.67;4.12;;;;;;;17.27;57.07;100327.20;1786059;79;21645;-77
2021/08/18 07:34:39;;;;;;;5.67;4.05;;;;;;;17.07;57.35;100337.22;1784849;78;21022;-78
2021/08/18 07:37:05;;;;;;;12.98;3.92;;;;;;;16.97;57.66;100340.89;1787711;79;21074;-78
2021/08/18 07:39:31;;;;;;;7.30;3.92;;;;;;;16.89;57.80;100337.91;1784784;79;21051;-77
2021/08/18 07:41:57;;;;;;;5.42;3.58;;;;;;;16.86;58.06;100340.19;1790410;79;21078;-78
2021/08/18 07:44:23;;;;;;;5.12;3.40;;;;;;;17.22;58.32;100326.17;1787555;79;21163;-78
2021/08/18 07:46:49;;;;;;;7.75;3.47;;;;;;;17.54;58.30;100322.98;1787198;79;20964;-77
2021/08/18 07:49:15;;;;;;;7.45;4.17;;;;;;;17.88;58.28;100326.61;1783815;79;21125;-78
2021/08/18 07:51:42;;;;;;;3.95;2.80;;;;;;;18.24;58.16;100329.44;1813052;77;21042;-78
2021/08/18 07:54:08;;;;;;;8.55;3.20;;;;;;;18.42;57.89;100331.35;1785346;79;21071;-78
2021/08/18 07:56:34;;;;;;;9.55;3.20;;;;;;;18.13;57.65;100330.16;1781050;79;21699;-78
2021/08/18 07:59:00;;;;;;;6.28;2.90;;;;;;;18.13;57.71;100323.92;1788065;79;21055;-78
2021/08/18 08:01:26;;;;;;;5.67;3.05;;;;;;;18.42;57.67;100326.78;1781454;79;21062;-78
2021/08/18 08:03:52;;;;;;;8.43;3.60;;;;;;;18.45;57.22;100324.98;1776643;79;21463;-78
2021/08/18 08:06:18;;;;;;;5.60;3.02;;;;;;;18.31;57.11;100323.45;1772368;79;21032;-78
2021/08/18 08:08:44;;;;;;;12.65;3.98;;;;;;;18.31;57.04;100319.41;1786683;79;21181;-78
2021/08/18 08:11:10;;;;;;;6.50;3.12;;;;;;;18.21;56.97;100320.95;1788006;79;21558;-77
2021/08/18 08:13:36;;;;;;;8.95;3.62;;;;;;;18.43;57.12;100320.86;1784115;79;21838;-78
2021/08/18 08:16:03;;;;;;;14.78;3.60;;;;;;;18.84;56.93;100319.72;1805311;78;20996;-78
2021/08/18 08:18:29;;;;;;;11.70;3.02;;;;;;;19.14;56.65;100329.21;1773313;80;21480;-78
2021/08/18 08:20:55;;;;;;;4.60;3.10;;;;;;;18.92;56.01;100319.94;1788975;79;21152;-78
2021/08/18 08:23:22;;;;;;;4.72;2.87;;;;;;;18.65;55.75;100318.05;1786424;79;21035;-78
2021/08/18 08:25:48;;;;;;;6.80;2.85;;;;;;;18.78;55.72;100321.14;1783566;79;21003;-78
2021/08/18 08:28:14;;;;;;;6.45;3.08;;;;;;;18.96;55.67;100307.08;1782729;79;21454;-78
2021/08/18 08:30:40;;;;;;;5.70;2.98;;;;;;;19.10;55.42;100316.39;1783899;79;21533;-78
2021/08/18 08:33:06;;;;;;;5.20;2.80;;;;;;;19.13;55.31;100309.18;1783747;79;21122;-78
2021/08/18 08:35:32;;;;;;;6.22;3.05;;;;;;;19.35;55.17;100312.50;1764522;79;21069;-78
2021/08/18 08:37:58;;;;;;;8.68;2.87;;;;;;;19.72;55.14;100309.72;1801042;78;21124;-78
2021/08/18 08:40:24;;;;;;;13.72;3.50;;;;;;;20.13;54.82;100313.72;1780258;78;21170;-78
2021/08/18 08:42:50;;;;;;;10.40;3.30;;;;;;;19.84;54.15;100308.67;1774784;80;21011;-78
2021/08/18 08:45:16;;;;;;;5.47;2.80;;;;;;;19.41;53.79;100312.98;1759777;79;21178;-78
2021/08/18 08:47:42;;;;;;;35.60;4.05;;;;;;;19.12;53.72;100317.81;1785047;79;21005;-78
2021/08/18 08:50:11;;;;;;;4.83;2.33;;;;;;;19.38;53.82;100319.35;1778064;79;21016;-78
2021/08/18 08:52:37;;;;;;;4.08;2.40;;;;;;;19.74;53.55;100312.48;1782758;79;21463;-78
2021/08/18 08:55:04;;;;;;;13.55;3.45;;;;;;;19.49;53.20;100317.25;1784634;79;21022;-78
2021/08/18 08:57:30;;;;;;;7.58;2.90;;;;;;;19.02;53.06;100326.98;1780973;79;21285;-78
2021/08/18 08:59:56;;;;;;;5.62;2.72;;;;;;;18.63;53.24;100317.98;1764666;79;21551;-76
2021/08/18 09:02:22;;;;;;;5.05;3.00;;;;;;;18.36;53.51;100311.48;1782064;79;21000;-77
2021/08/18 09:04:50;;;;;;;3.00;2.20;;;;;;;18.34;53.74;100320.31;1818967;78;20990;-77
2021/08/18 09:07:22;;;;;;;4.22;2.45;;;;;;;18.33;53.86;100321.34;1816562;78;21055;-77
2021/08/18 09:10:00;;;;;;;4.12;2.12;;;;;;;18.33;53.96;100323.25;1807803;78;21085;-77
2021/08/18 09:12:38;;;;;;;6.05;2.37;;;;;;;18.13;54.13;100305.86;1807442;78;21030;-78
2021/08/18 09:15:23;;;;;;;6.85;3.08;;;;;;;18.04;54.33;100319.86;1807176;77;20997;-77
2021/08/18 09:17:53;;;;;;;8.33;4.10;;;;;;;18.22;54.54;100307.77;1824503;77;21025;-78
2021/08/18 09:20:22;;;;;;;8.68;4.28;;;;;;;18.29;54.58;100316.12;1818657;78;21029;-77
2021/08/18 09:22:54;;;;;;;5.63;2.77;;;;;;;18.32;54.55;100308.09;1813462;78;21066;-77
2021/08/18 09:25:39;;;;;;;10.32;3.25;;;;;;;18.37;54.49;100309.58;1825592;78;20995;-78
2021/08/18 09:28:10;;;;;;;7.25;3.12;;;;;;;18.63;54.41;100306.66;1745341;81;21608;-78
2021/08/18 09:30:39;;;;;;;6.28;2.08;;;;;;;18.78;54.10;100303.58;1742796;81;20996;-78
2021/08/18 09:33:12;;;;;;;5.03;2.60;;;;;;;18.72;53.58;100299.05;1749887;81;21003;-78
2021/08/18 09:35:38;;;;;;;6.12;2.72;;;;;;;18.63;53.28;100299.90;1743243;81;21562;-78
2021/08/18 09:38:10;;;;;;;12.03;2.80;;;;;;;18.53;52.93;100303.65;1742320;81;21025;-79
2021/08/18 09:40:45;;;;;;;7.78;2.95;;;;;;;18.50;52.91;100300.53;1742104;81;21067;-79
2021/08/18 09:43:22;;;;;;;5.97;2.47;;;;;;;18.56;52.93;100294.27;1741750;81;21044;-78
2021/08/18 09:45:58;;;;;;;9.13;2.25;;;;;;;18.83;53.03;100300.48;1741732;81;21456;-79
2021/08/18 09:48:25;;;;;;;4.97;2.27;;;;;;;19.28;52.85;100287.42;1742746;81;21114;-79
2021/08/18 09:51:05;;;;;;;3.27;2.12;;;;;;;19.28;52.17;100291.48;1743339;80;21032;-79
2021/08/18 09:53:39;;;;;;;2.95;1.95;;;;;;;19.31;52.12;100291.05;1767526;81;21538;-79
2021/08/18 09:56:13;;;;;;;4.17;2.08;;;;;;;19.23;51.93;100289.18;1772334;81;21062;-78
2021/08/18 09:58:54;;;;;;;5.00;2.37;;;;;;;19.26;51.52;100292.77;1771981;80;21498;-79
2021/08/18 10:01:20;;;;;;;4.15;1.95;;;;;;;19.27;51.32;100287.14;1772187;81;21223;-79
2021/08/18 10:03:50;;;;;;;6.28;4.25;;;;;;;19.32;51.27;100283.21;1742212;80;21584;-79
2021/08/18 10:06:16;;;;;;;4.95;2.47;;;;;;;19.30;51.28;100294.80;1770474;80;21075;-79
2021/08/18 10:08:44;;;;;;;3.08;2.12;;;;;;;19.44;51.39;100288.18;1785856;80;20999;-78
2021/08/18 10:11:12;;;;;;;2.70;1.92;;;;;;;19.49;51.33;100294.78;1780440;80;21040;-79
2021/08/18 10:13:38;;;;;;;9.20;2.72;;;;;;;19.50;51.35;100288.30;1780130;80;21640;-79
2021/08/18 10:16:04;;;;;;;4.65;2.50;;;;;;;19.30;51.22;100288.04;1778421;79;21046;-78
2021/08/18 10:18:43;;;;;;;6.17;2.95;;;;;;;19.28;51.34;100288.77;1783208;80;21464;-78
2021/08/18 10:21:19;;;;;;;4.75;3.37;;;;;;;19.16;51.32;100282.52;1769718;80;20990;-78
2021/08/18 10:23:58;;;;;;;8.93;3.60;;;;;;;19.29;51.51;100279.62;1763021;81;21549;-78
2021/08/18 10:26:39;;;;;;;5.78;3.70;;;;;;;19.46;51.36;100279.02;1762657;81;21689;-79
2021/08/18 10:29:12;;;;;;;4.72;2.87;;;;;;;19.48;51.22;100275.54;1763104;81;20986;-79
2021/08/18 10:31:47;;;;;;;15.65;4.05;;;;;;;19.79;51.13;100278.80;1763695;81;21009;-79
2021/08/18 10:34:33;;;;;;;6.12;3.12;;;;;;;20.15;50.64;100279.12;1763963;80;20990;-79
2021/08/18 10:37:02;;;;;;;4.67;2.80;;;;;;;20.40;50.43;100278.92;1773275;79;21065;-78
2021/08/18 10:39:31;;;;;;;3.62;2.52;;;;;;;20.54;50.25;100280.84;1771614;80;26701;-78
2021/08/18 10:42:11;;;;;;;6.78;2.40;;;;;;;20.49;49.84;100273.95;1762539;81;21351;-79
2021/08/18 10:44:48;;;;;;;5.40;1.77;;;;;;;20.25;49.05;100275.30;1778968;80;21556;-79
2021/08/18 10:47:21;;;;;;;4.60;3.17;;;;;;;19.90;48.94;100281.22;1778598;80;21012;-79
2021/08/18 10:49:57;;;;;;;5.65;2.95;;;;;;;19.65;48.93;100282.77;1778715;80;21497;-78
2021/08/18 10:52:43;;;;;;;6.00;3.85;;;;;;;19.40;49.04;100282.06;1778527;80;21140;-78
2021/08/18 10:55:18;;;;;;;10.65;2.40;;;;;;;19.22;49.25;100287.00;1778585;80;20981;-78
2021/08/18 10:57:49;;;;;;;9.10;3.12;;;;;;;19.07;49.49;100284.42;1778832;80;21036;-78
2021/08/18 11:00:41;;;;;;;6.65;2.20;;;;;;;19.03;49.69;100286.75;1778937;80;21035;-78
2021/08/18 11:03:16;;;;;;;5.62;3.42;;;;;;;19.05;49.90;100289.20;1778625;80;21480;-78
2021/08/18 11:05:50;;;;;;;11.20;2.98;;;;;;;18.96;50.07;100276.55;1771485;80;21108;-78
2021/08/18 11:08:26;;;;;;;9.88;4.20;;;;;;;18.96;50.30;100279.25;1778528;80;21043;-78
2021/08/18 11:10:58;;;;;;;13.15;5.22;;;;;;;19.23;50.55;100279.19;1778673;80;21144;-78
2021/08/18 11:13:47;;;;;;;8.98;2.62;;;;;;;19.58;50.60;100274.45;1778694;80;21012;-78
2021/08/18 11:16:26;;;;;;;8.90;2.47;;;;;;;19.77;50.55;100273.33;1778995;80;21003;-78
2021/08/18 11:18:59;;;;;;;2.90;2.27;;;;;;;20.01;50.40;100264.17;1778991;80;21791;-78
2021/08/18 11:21:28;;;;;;;6.30;2.72;;;;;;;20.01;50.14;100261.98;1778635;80;20988;-78